createdAt,value
2019-04-26T00:02:53.832Z,99205.21
2019-04-26T00:05:42.540Z,99225.62
2019-04-26T00:08:33.341Z,99230.16
2019-04-26T00:11:41.858Z,99220.39
2019-04-26T00:14:56.982Z,99231.22
2019-04-26T00:17:52.275Z,99226.64
2019-04-26T00:20:41.084Z,99218.77
2019-04-26T00:23:30.547Z,99210.62
2019-04-26T00:26:21.819Z,99214.61
2019-04-26T00:29:11.372Z,99221.80
2019-04-26T00:32:01.276Z,99234.65
2019-04-26T00:34:50.273Z,99237.82
2019-04-26T00:37:39.943Z,99235.94
2019-04-26T00:40:29.907Z,99220.98
2019-04-26T00:43:19.195Z,99212.62
2019-04-26T00:46:09.919Z,99222.63
2019-04-26T00:49:01.450Z,99233.59
2019-04-26T00:51:51.088Z,99231.13
2019-04-26T00:54:41.309Z,99226.16
2019-04-26T00:57:31.405Z,99231.11
2019-04-26T01:00:22.007Z,99237.00
2019-04-26T01:03:10.877Z,99235.11
2019-04-26T01:06:01.554Z,99238.06
2019-04-26T01:08:51.224Z,99253.02
2019-04-26T01:11:40.111Z,99261.36
2019-04-26T01:14:29.999Z,99255.72
2019-04-26T01:17:20.332Z,99257.24
2019-04-26T01:20:09.914Z,99254.98
2019-04-26T01:23:02.293Z,99249.62
2019-04-26T01:26:01.967Z,99261.37
2019-04-26T01:28:59.267Z,99263.14
2019-04-26T01:32:06.105Z,99270.21
2019-04-26T01:34:56.301Z,99286.41
2019-04-26T01:37:46.531Z,99303.73
2019-04-26T01:40:37.234Z,99296.62
2019-04-26T01:43:45.514Z,99295.55
2019-04-26T01:46:39.354Z,99297.73
2019-04-26T01:49:28.494Z,99301.33
2019-04-26T01:52:18.110Z,99312.55
2019-04-26T01:55:07.469Z,99322.80
2019-04-26T01:57:57.403Z,99321.61
2019-04-26T02:01:07.076Z,99321.00
2019-04-26T02:03:55.715Z,99318.40
2019-04-26T02:06:45.015Z,99289.72
2019-04-26T02:09:33.641Z,99293.04
2019-04-26T02:12:23.831Z,99318.11
2019-04-26T02:15:14.793Z,99331.73
2019-04-26T02:18:04.725Z,99350.83
2019-04-26T02:21:03.373Z,99340.88
2019-04-26T02:23:56.932Z,99346.28
2019-04-26T02:26:46.602Z,99336.11
2019-04-26T02:29:35.995Z,99330.30
2019-04-26T02:32:27.240Z,99336.80
2019-04-26T02:35:16.628Z,99322.62
2019-04-26T02:38:06.156Z,99324.13
2019-04-26T02:40:56.010Z,99334.78
2019-04-26T02:43:46.431Z,99338.42
2019-04-26T02:46:50.353Z,99322.67
2019-04-26T02:49:43.479Z,99326.21
2019-04-26T02:53:03.320Z,99326.07
2019-04-26T02:56:28.181Z,99327.30
2019-04-26T02:59:34.573Z,99332.88
2019-04-26T03:02:24.779Z,99314.58
2019-04-26T03:05:13.973Z,99312.91
2019-04-26T03:08:07.306Z,99327.34
2019-04-26T03:11:19.059Z,99315.97
2019-04-26T03:14:26.000Z,99318.02
2019-04-26T03:17:32.526Z,99308.77
2019-04-26T03:20:29.113Z,99305.11
2019-04-26T03:23:41.782Z,99304.22
2019-04-26T03:27:04.651Z,99306.30
2019-04-26T03:30:18.418Z,99308.02
2019-04-26T03:33:23.310Z,99319.36
2019-04-26T03:36:33.938Z,99313.70
2019-04-26T03:39:30.167Z,99323.16
2019-04-26T03:42:49.168Z,99318.77
2019-04-26T03:46:21.341Z,99325.22
2019-04-26T03:49:31.998Z,99332.40
2019-04-26T03:52:53.470Z,99326.98
2019-04-26T03:56:23.132Z,99331.72
2019-04-26T03:59:44.166Z,99330.84
2019-04-26T04:02:50.402Z,99330.53
2019-04-26T04:05:46.018Z,99328.48
2019-04-26T04:08:48.186Z,99329.69
2019-04-26T04:11:49.157Z,99335.03
2019-04-26T04:15:06.226Z,99338.31
2019-04-26T04:17:59.454Z,99342.99
2019-04-26T04:21:32.448Z,99328.78
2019-04-26T04:24:42.662Z,99325.13
2019-04-26T04:27:41.382Z,99333.64
2019-04-26T04:31:23.971Z,99356.91
2019-04-26T04:34:19.422Z,99370.13
2019-04-26T04:37:11.675Z,99377.14
2019-04-26T04:40:29.718Z,99374.23
2019-04-26T04:43:49.271Z,99377.98
2019-04-26T04:47:24.411Z,99382.53
2019-04-26T04:50:34.379Z,99392.09
2019-04-26T04:53:51.612Z,99396.16
2019-04-26T04:56:47.847Z,99394.42
2019-04-26T04:59:25.415Z,99409.78
2019-04-26T05:02:24.992Z,99408.48
2019-04-26T05:05:31.209Z,99405.31
2019-04-26T05:08:17.472Z,99404.42
2019-04-26T05:11:03.816Z,99400.36
2019-04-26T05:13:46.384Z,99399.58
2019-04-26T05:16:42.573Z,99393.20
2019-04-26T05:19:40.417Z,99392.84
2019-04-26T05:22:47.359Z,99406.66
2019-04-26T05:26:12.295Z,99413.56
2019-04-26T05:28:52.101Z,99430.93
2019-04-26T05:31:51.556Z,99441.90
2019-04-26T05:34:56.997Z,99454.79
2019-04-26T05:38:00.449Z,99461.71
2019-04-26T05:40:59.274Z,99479.07
2019-04-26T05:44:10.126Z,99496.79
2019-04-26T05:47:40.275Z,99508.36
2019-04-26T05:51:21.312Z,99521.96
2019-04-26T05:54:45.849Z,99509.53
2019-04-26T05:57:41.373Z,99490.42
2019-04-26T06:00:26.010Z,99489.61
2019-04-26T06:03:54.324Z,99493.52
2019-04-26T06:06:40.635Z,99496.67
2019-04-26T06:10:03.931Z,99500.93
2019-04-26T06:12:52.411Z,99497.88
2019-04-26T06:15:38.620Z,99492.39
2019-04-26T06:18:47.479Z,99491.14
2019-04-26T06:21:28.204Z,99487.69
2019-04-26T06:25:08.454Z,99490.77
2019-04-26T06:28:02.878Z,99500.55
2019-04-26T06:30:46.711Z,99515.34
2019-04-26T06:33:33.544Z,99522.53
2019-04-26T06:36:10.119Z,99519.26
2019-04-26T06:39:28.462Z,99516.05
2019-04-26T06:42:55.288Z,99515.08
2019-04-26T06:46:22.941Z,99520.94
2019-04-26T06:49:12.030Z,99522.25
2019-04-26T06:51:48.042Z,99527.09
2019-04-26T06:54:50.391Z,99527.33
2019-04-26T06:58:13.444Z,99534.30
2019-04-26T07:01:03.215Z,99526.76
2019-04-26T07:04:22.137Z,99532.28
2019-04-26T07:07:35.994Z,99522.08
2019-04-26T07:10:37.269Z,99527.35
2019-04-26T07:13:35.236Z,99528.84
2019-04-26T07:16:45.838Z,99531.72
2019-04-26T07:19:58.477Z,99536.49
2019-04-26T07:23:03.766Z,99544.00
2019-04-26T07:26:03.806Z,99548.27
2019-04-26T07:28:51.737Z,99547.72
2019-04-26T07:31:35.393Z,99547.33
2019-04-26T07:34:45.485Z,99537.81
2019-04-26T07:38:05.317Z,99531.57
2019-04-26T07:41:26.042Z,99528.66
2019-04-26T07:45:02.074Z,99532.41
2019-04-26T07:48:26.957Z,99536.95
2019-04-26T07:51:45.893Z,99545.16
2019-04-26T07:55:00.177Z,99557.72
2019-04-26T07:58:07.342Z,99570.66
2019-04-26T08:00:49.014Z,99557.66
2019-04-26T08:03:35.965Z,99564.89
2019-04-26T08:06:29.929Z,99574.83
2019-04-26T08:09:07.927Z,99582.95
2019-04-26T08:11:49.723Z,99577.65
2019-04-26T08:14:29.069Z,99584.36
2019-04-26T08:17:31.397Z,99584.16
2019-04-26T08:20:14.136Z,99586.07
2019-04-26T08:22:52.239Z,99575.41
2019-04-26T08:25:23.874Z,99578.80
2019-04-26T08:27:56.241Z,99587.05
2019-04-26T08:30:28.561Z,99584.38
2019-04-26T08:33:02.155Z,99594.50
2019-04-26T08:35:36.796Z,99592.14
2019-04-26T08:38:16.107Z,99594.89
2019-04-26T08:40:41.833Z,99605.48
2019-04-26T08:43:50.147Z,99607.06
2019-04-26T08:46:40.780Z,99608.08
2019-04-26T08:49:35.140Z,99603.84
2019-04-26T08:52:14.297Z,99617.03
2019-04-26T08:54:45.152Z,99618.89
2019-04-26T08:57:16.967Z,99617.41
2019-04-26T08:59:50.819Z,99614.27
2019-04-26T09:02:40.779Z,99623.12
2019-04-26T09:05:32.553Z,99624.59
2019-04-26T09:08:04.103Z,99632.73
2019-04-26T09:10:39.350Z,99621.60
2019-04-26T09:13:10.823Z,99621.46
2019-04-26T09:16:13.590Z,99621.57
2019-04-26T09:18:52.649Z,99630.67
2019-04-26T09:21:19.512Z,99636.83
2019-04-26T09:24:12.701Z,99633.50
2019-04-26T09:27:07.595Z,99635.34
2019-04-26T09:30:00.566Z,99633.21
2019-04-26T09:32:35.008Z,99627.56
2019-04-26T09:35:06.183Z,99622.98
2019-04-26T09:37:37.179Z,99625.29
2019-04-26T09:40:10.357Z,99632.63
2019-04-26T09:42:47.305Z,99634.55
2019-04-26T09:45:36.136Z,99644.45
2019-04-26T09:48:20.653Z,99646.34
2019-04-26T09:50:52.829Z,99648.83
2019-04-26T09:53:23.796Z,99660.25
2019-04-26T09:55:54.770Z,99665.81
2019-04-26T09:58:26.867Z,99670.24
2019-04-26T10:00:58.827Z,99667.55
2019-04-26T10:03:30.141Z,99679.28
2019-04-26T10:06:01.082Z,99679.84
2019-04-26T10:08:32.340Z,99678.12
2019-04-26T10:11:05.808Z,99677.16
2019-04-26T10:13:51.028Z,99676.20
2019-04-26T10:16:42.393Z,99669.58
2019-04-26T10:19:17.073Z,99661.65
2019-04-26T10:21:47.816Z,99668.80
2019-04-26T10:24:18.896Z,99666.39
2019-04-26T10:26:49.587Z,99668.92
2019-04-26T10:29:21.750Z,99662.41
2019-04-26T10:31:52.979Z,99673.95
2019-04-26T10:34:23.731Z,99659.64
2019-04-26T10:36:56.847Z,99643.69
2019-04-26T10:39:28.613Z,99645.75
2019-04-26T10:41:59.597Z,99651.35
2019-04-26T10:44:30.721Z,99648.39
2019-04-26T10:47:04.366Z,99661.92
2019-04-26T10:49:44.921Z,99662.75
2019-04-26T10:52:29.817Z,99664.55
2019-04-26T10:55:16.023Z,99662.45
2019-04-26T10:57:46.059Z,99666.90
2019-04-26T11:00:29.128Z,99666.00
2019-04-26T11:03:04.007Z,99664.55
2019-04-26T11:05:32.845Z,99658.55
2019-04-26T11:08:04.216Z,99661.00
2019-04-26T11:10:47.982Z,99664.60
2019-04-26T11:13:08.707Z,99663.72
2019-04-26T11:15:39.758Z,99662.61
2019-04-26T11:18:10.569Z,99656.92
2019-04-26T11:20:45.660Z,99674.64
2019-04-26T11:23:14.286Z,99666.06
2019-04-26T11:25:45.084Z,99661.02
2019-04-26T11:28:20.845Z,99670.78
2019-04-26T11:30:52.072Z,99663.44
2019-04-26T11:33:20.767Z,99666.46
2019-04-26T11:35:51.818Z,99662.71
2019-04-26T11:38:22.655Z,99654.41
2019-04-26T11:41:05.803Z,99653.91
2019-04-26T11:43:26.192Z,99655.02
2019-04-26T11:46:04.233Z,99664.80
2019-04-26T11:48:30.679Z,99663.70
2019-04-26T11:51:01.426Z,99665.18
2019-04-26T11:53:33.497Z,99675.17
2019-04-26T11:56:05.674Z,99680.13
2019-04-26T11:58:36.791Z,99686.56
2019-04-26T12:01:09.419Z,99688.38
2019-04-26T12:03:42.712Z,99692.78
2019-04-26T12:06:35.538Z,99697.11
2019-04-26T12:09:12.726Z,99698.89
2019-04-26T12:11:49.598Z,99700.58
2019-04-26T12:14:20.553Z,99695.78
2019-04-26T12:16:54.977Z,99698.63
2019-04-26T12:19:23.041Z,99707.52
2019-04-26T12:21:54.992Z,99717.91
2019-04-26T12:24:29.603Z,99721.98
2019-04-26T12:26:59.729Z,99721.73
2019-04-26T12:29:30.503Z,99714.34
2019-04-26T12:32:01.485Z,99716.47
2019-04-26T12:34:32.366Z,99712.92
2019-04-26T12:37:03.243Z,99706.94
2019-04-26T12:39:36.714Z,99700.06
2019-04-26T12:42:08.304Z,99704.67
2019-04-26T12:44:47.012Z,99703.23
2019-04-26T12:47:30.495Z,99706.73
2019-04-26T12:50:00.549Z,99709.06
2019-04-26T12:52:31.210Z,99712.14
2019-04-26T12:55:02.246Z,99717.66
2019-04-26T12:57:36.453Z,99718.64
2019-04-26T13:00:06.188Z,99712.63
2019-04-26T13:02:38.084Z,99713.72
2019-04-26T13:05:09.162Z,99714.39
2019-04-26T13:07:42.929Z,99712.59
2019-04-26T13:10:22.053Z,99706.64
2019-04-26T13:13:05.911Z,99708.27
2019-04-26T13:16:03.340Z,99701.33
2019-04-26T13:18:34.324Z,99703.25
2019-04-26T13:21:05.647Z,99709.16
2019-04-26T13:23:36.400Z,99710.30
2019-04-26T13:26:07.138Z,99707.91
2019-04-26T13:28:37.880Z,99711.73
2019-04-26T13:31:08.718Z,99717.56
2019-04-26T13:33:39.927Z,99715.69
2019-04-26T13:36:10.681Z,99723.17
2019-04-26T13:38:43.413Z,99727.05
2019-04-26T13:41:14.593Z,99723.61
2019-04-26T13:43:45.383Z,99720.70
2019-04-26T13:46:26.679Z,99720.72
2019-04-26T13:49:18.158Z,99723.86
2019-04-26T13:51:47.516Z,99729.32
2019-04-26T13:54:21.181Z,99724.37
2019-04-26T13:56:51.475Z,99712.02
2019-04-26T13:59:22.479Z,99725.40
2019-04-26T14:01:53.215Z,99724.33
2019-04-26T14:04:24.057Z,99719.48
2019-04-26T14:06:54.971Z,99716.63
2019-04-26T14:09:25.891Z,99726.03
2019-04-26T14:11:58.070Z,99730.28
2019-04-26T14:14:30.207Z,99737.22
2019-04-26T14:17:01.502Z,99738.59
2019-04-26T14:19:32.489Z,99737.10
2019-04-26T14:22:07.172Z,99740.25
2019-04-26T14:24:45.326Z,99731.31
2019-04-26T14:27:20.307Z,99730.06
2019-04-26T14:29:51.046Z,99727.60
2019-04-26T14:32:23.382Z,99723.16
2019-04-26T14:34:54.726Z,99717.76
2019-04-26T14:37:25.712Z,99720.79
2019-04-26T14:39:59.260Z,99712.30
2019-04-26T14:42:34.399Z,99719.42
2019-04-26T14:45:06.145Z,99719.02
2019-04-26T14:47:46.742Z,99714.94
2019-04-26T14:50:14.198Z,99723.88
2019-04-26T14:52:40.441Z,99726.76
2019-04-26T14:55:11.251Z,99735.22
2019-04-26T14:57:42.791Z,99727.55
2019-04-26T15:00:16.742Z,99734.41
2019-04-26T15:03:03.833Z,99733.95
2019-04-26T15:05:59.446Z,99730.30
2019-04-26T15:08:32.086Z,99741.38
2019-04-26T15:11:04.564Z,99738.45
2019-04-26T15:13:40.263Z,99743.86
2019-04-26T15:16:10.202Z,99742.42
2019-04-26T15:18:42.507Z,99741.69
2019-04-26T15:21:13.382Z,99742.42
2019-04-26T15:23:44.181Z,99734.48
2019-04-26T15:26:18.414Z,99729.48
2019-04-26T15:28:50.548Z,99740.41
2019-04-26T15:31:21.672Z,99741.35
2019-04-26T15:33:52.964Z,99737.19
2019-04-26T15:36:24.818Z,99743.88
2019-04-26T15:38:56.200Z,99739.54
2019-04-26T15:41:47.054Z,99737.14
2019-04-26T15:44:29.699Z,99734.87
2019-04-26T15:47:23.606Z,99733.05
2019-04-26T15:50:22.320Z,99739.23
2019-04-26T15:52:53.133Z,99734.18
2019-04-26T15:55:24.112Z,99732.77
2019-04-26T15:57:54.852Z,99732.36
2019-04-26T16:00:28.388Z,99734.97
2019-04-26T16:02:58.652Z,99731.69
2019-04-26T16:05:31.274Z,99731.42
2019-04-26T16:08:04.662Z,99731.53
2019-04-26T16:10:38.350Z,99739.97
2019-04-26T16:13:18.017Z,99743.41
2019-04-26T16:15:43.624Z,99746.99
2019-04-26T16:18:17.046Z,99750.20
2019-04-26T16:20:47.210Z,99747.69
2019-04-26T16:23:17.971Z,99744.02
2019-04-26T16:25:48.776Z,99744.11
2019-04-26T16:28:45.788Z,99750.98
2019-04-26T16:31:24.925Z,99751.68
2019-04-26T16:33:59.037Z,99750.20
2019-04-26T16:36:30.067Z,99747.72
2019-04-26T16:39:02.530Z,99744.11
2019-04-26T16:41:37.829Z,99740.45
2019-04-26T16:44:07.844Z,99746.67
2019-04-26T16:46:38.560Z,99739.59
2019-04-26T16:49:12.411Z,99735.53
2019-04-26T16:51:43.150Z,99732.81
2019-04-26T16:54:21.064Z,99741.31
2019-04-26T16:56:47.064Z,99737.45
2019-04-26T16:59:22.537Z,99738.55
2019-04-26T17:01:50.560Z,99738.29
2019-04-26T17:04:28.216Z,99740.44
2019-04-26T17:06:54.282Z,99738.45
2019-04-26T17:09:29.758Z,99743.31
2019-04-26T17:11:57.703Z,99743.16
2019-04-26T17:14:28.514Z,99744.19
2019-04-26T17:16:59.492Z,99744.35
2019-04-26T17:19:35.921Z,99746.80
2019-04-26T17:22:16.680Z,99755.30
2019-04-26T17:24:53.379Z,99754.36
2019-04-26T17:27:24.504Z,99753.21
2019-04-26T17:29:55.325Z,99763.17
2019-04-26T17:32:26.068Z,99763.84
2019-04-26T17:34:59.503Z,99761.39
2019-04-26T17:37:30.545Z,99757.28
2019-04-26T17:40:01.551Z,99758.52
2019-04-26T17:42:36.310Z,99749.25
2019-04-26T17:45:07.052Z,99753.37
2019-04-26T17:47:40.249Z,99759.52
2019-04-26T17:50:11.567Z,99761.23
2019-04-26T17:52:44.232Z,99757.70
2019-04-26T17:55:16.080Z,99758.83
2019-04-26T17:57:48.432Z,99756.44
2019-04-26T18:00:27.138Z,99763.42
2019-04-26T18:02:55.085Z,99757.42
2019-04-26T18:05:39.919Z,99758.93
2019-04-26T18:08:01.680Z,99759.51
2019-04-26T18:10:31.345Z,99762.70
2019-04-26T18:13:02.535Z,99762.50
2019-04-26T18:15:35.641Z,99766.08
2019-04-26T18:18:25.267Z,99765.98
2019-04-26T18:21:36.979Z,99773.77
2019-04-26T18:24:08.031Z,99772.59
2019-04-26T18:26:38.776Z,99775.81
2019-04-26T18:29:09.600Z,99785.87
2019-04-26T18:31:40.643Z,99790.63
2019-04-26T18:34:12.815Z,99794.09
2019-04-26T18:36:43.867Z,99797.27
2019-04-26T18:39:18.066Z,99802.11
2019-04-26T18:41:47.872Z,99806.14
2019-04-26T18:44:18.726Z,99807.55
2019-04-26T18:47:02.782Z,99804.25
2019-04-26T18:49:34.841Z,99803.08
2019-04-26T18:52:05.581Z,99804.27
2019-04-26T18:54:52.936Z,99802.37
2019-04-26T18:57:24.242Z,99805.44
2019-04-26T18:59:55.702Z,99811.25
2019-04-26T19:02:27.948Z,99814.20
2019-04-26T19:04:58.926Z,99816.06
2019-04-26T19:07:32.682Z,99818.11
2019-04-26T19:10:07.052Z,99815.38
2019-04-26T19:12:39.220Z,99818.32
2019-04-26T19:15:45.814Z,99818.69
2019-04-26T19:18:42.446Z,99816.21
2019-04-26T19:21:44.615Z,99817.49
2019-04-26T19:24:19.640Z,99811.70
2019-04-26T19:26:49.735Z,99816.38
2019-04-26T19:29:29.148Z,99821.80
2019-04-26T19:31:56.714Z,99832.77
2019-04-26T19:34:30.251Z,99821.27
2019-04-26T19:37:00.973Z,99822.22
2019-04-26T19:39:35.499Z,99815.73
2019-04-26T19:42:06.851Z,99812.63
2019-04-26T19:44:37.589Z,99823.99
2019-04-26T19:47:22.684Z,99821.65
2019-04-26T19:50:18.442Z,99825.31
2019-04-26T19:53:22.965Z,99818.08
2019-04-26T19:56:24.856Z,99811.24
2019-04-26T19:58:57.642Z,99812.05
2019-04-26T20:01:27.485Z,99813.95
2019-04-26T20:03:58.343Z,99820.69
2019-04-26T20:06:29.336Z,99815.13
2019-04-26T20:09:01.944Z,99813.36
2019-04-26T20:11:34.442Z,99813.90
2019-04-26T20:14:05.237Z,99816.31
2019-04-26T20:16:36.476Z,99813.57
2019-04-26T20:19:14.938Z,99810.97
2019-04-26T20:21:41.496Z,99814.63
2019-04-26T20:24:12.758Z,99824.23
2019-04-26T20:26:44.703Z,99820.75
2019-04-26T20:29:15.745Z,99819.51
2019-04-26T20:31:54.340Z,99818.41
2019-04-26T20:34:25.064Z,99813.00
2019-04-26T20:36:56.032Z,99815.97
2019-04-26T20:39:26.830Z,99813.23
2019-04-26T20:42:03.563Z,99815.00
2019-04-26T20:44:47.520Z,99822.67
2019-04-26T20:47:03.425Z,99829.30
2019-04-26T20:49:34.145Z,99836.39
2019-04-26T20:52:05.136Z,99835.67
2019-04-26T20:54:35.880Z,99837.81
2019-04-26T20:57:06.696Z,99834.50
2019-04-26T20:59:37.419Z,99833.56
2019-04-26T21:02:08.485Z,99838.53
2019-04-26T21:04:42.251Z,99836.88
2019-04-26T21:07:14.093Z,99833.30
2019-04-26T21:09:46.079Z,99838.77
2019-04-26T21:12:18.520Z,99843.63
2019-04-26T21:14:49.204Z,99841.72
2019-04-26T21:17:26.380Z,99837.69
2019-04-26T21:19:58.413Z,99839.36
2019-04-26T21:22:28.878Z,99833.83
2019-04-26T21:25:05.543Z,99833.46
2019-04-26T21:27:57.000Z,99830.38
2019-04-26T21:30:41.843Z,99833.66
2019-04-26T21:33:24.498Z,99836.42
2019-04-26T21:36:26.088Z,99836.62
2019-04-26T21:39:14.891Z,99845.61
2019-04-26T21:41:48.371Z,99851.91
2019-04-26T21:44:19.237Z,99849.05
2019-04-26T21:46:56.111Z,99843.73
2019-04-26T21:49:24.375Z,99845.41
2019-04-26T21:51:55.128Z,99847.41
2019-04-26T21:54:25.877Z,99849.19
2019-04-26T21:56:56.861Z,99854.41
2019-04-26T21:59:27.838Z,99853.70
2019-04-26T22:01:59.279Z,99853.56
2019-04-26T22:04:36.365Z,99856.17
2019-04-26T22:07:05.161Z,99855.25
2019-04-26T22:09:43.967Z,99856.87
2019-04-26T22:12:16.064Z,99856.55
2019-04-26T22:14:58.245Z,99862.11
2019-04-26T22:17:34.791Z,99859.61
2019-04-26T22:20:23.390Z,99861.39
2019-04-26T22:23:16.361Z,99859.25
2019-04-26T22:25:46.623Z,99858.06
2019-04-26T22:28:17.604Z,99863.00
2019-04-26T22:30:49.321Z,99852.23
2019-04-26T22:33:20.071Z,99856.07
2019-04-26T22:35:55.283Z,99859.37
2019-04-26T22:38:26.693Z,99858.42
2019-04-26T22:40:57.534Z,99860.38
2019-04-26T22:43:54.058Z,99866.86
2019-04-26T22:46:49.445Z,99866.58
2019-04-26T22:49:20.050Z,99871.06
2019-04-26T22:51:51.327Z,99864.06
2019-04-26T22:54:23.074Z,99862.75
2019-04-26T22:56:54.828Z,99866.03
2019-04-26T22:59:25.579Z,99869.53
2019-04-26T23:01:56.306Z,99859.77
2019-04-26T23:04:27.807Z,99870.99
2019-04-26T23:06:58.545Z,99868.81
2019-04-26T23:09:29.300Z,99865.14
2019-04-26T23:12:06.833Z,99864.63
2019-04-26T23:14:57.641Z,99857.02
2019-04-26T23:17:46.468Z,99859.95
2019-04-26T23:20:39.073Z,99862.39
2019-04-26T23:23:10.488Z,99867.56
2019-04-26T23:25:41.460Z,99864.50
2019-04-26T23:28:12.512Z,99857.80
2019-04-26T23:30:44.243Z,99861.84
2019-04-26T23:33:15.186Z,99851.04
2019-04-26T23:35:47.753Z,99852.21
2019-04-26T23:38:19.521Z,99849.52
2019-04-26T23:40:50.798Z,99846.96
2019-04-26T23:43:25.437Z,99842.33
2019-04-26T23:45:54.205Z,99843.63
2019-04-26T23:48:25.192Z,99843.28
2019-04-26T23:50:59.927Z,99842.91
2019-04-26T23:53:28.350Z,99838.56
2019-04-26T23:55:59.311Z,99842.95
2019-04-26T23:58:30.299Z,99835.06
